Time;durP1;ratioP1;P1;durP2;ratioP2;P2;SDS_P1;SDS_P2;PMS_P1;PMS_P2;Temp;Humidity;BMP_temperature;BMP_pressure;BME280_temperature;BME280_humidity;BME280_pressure;Samples;Min_cycle;Max_cycle;Signal;HPM_P1;HPM_P2
2022/08/05 00:02:09;;;;;;;8.93;3.90;;;18.00;99.90;;;;;;6113411;23;20031;-80
2022/08/05 00:04:35;;;;;;;5.65;4.10;;;17.90;99.90;;;;;;6137884;23;20016;-79
2022/08/05 00:07:01;;;;;;;9.05;4.00;;;18.00;99.90;;;;;;6161736;23;20117;-77
2022/08/05 00:09:27;;;;;;;7.13;3.85;;;17.90;99.90;;;;;;6160677;23;20016;-79
2022/08/05 00:11:53;;;;;;;5.40;3.80;;;17.90;99.90;;;;;;6137131;23;20020;-79
2022/08/05 00:14:18;;;;;;;5.88;3.55;;;17.90;99.90;;;;;;6136262;23;20099;-78
2022/08/05 00:16:45;;;;;;;8.00;3.88;;;17.90;99.90;;;;;;6137687;23;20590;-78
2022/08/05 00:19:10;;;;;;;5.60;3.53;;;17.90;99.90;;;;;;6162060;23;20079;-78
2022/08/05 00:21:36;;;;;;;6.43;3.85;;;17.90;99.90;;;;;;6135816;23;20016;-79
2022/08/05 00:24:02;;;;;;;6.18;4.03;;;17.90;99.90;;;;;;6136823;23;20012;-78
2022/08/05 00:26:28;;;;;;;7.85;3.80;;;17.90;99.90;;;;;;6161749;23;20723;-79
2022/08/05 00:28:53;;;;;;;5.30;3.83;;;17.90;99.90;;;;;;6137727;23;20016;-79
2022/08/05 00:31:19;;;;;;;6.35;3.75;;;17.90;99.90;;;;;;6112558;23;20020;-78
2022/08/05 00:33:45;;;;;;;5.22;3.90;;;17.90;99.90;;;;;;6136411;23;20052;-78
2022/08/05 00:36:10;;;;;;;6.45;4.15;;;17.90;99.90;;;;;;6161888;23;20017;-79
2022/08/05 00:38:38;;;;;;;5.22;4.38;;;17.90;99.90;;;;;;6112901;23;20031;-78
2022/08/05 00:41:06;;;;;;;5.45;3.72;;;17.90;99.90;;;;;;6186773;23;20120;-79
2022/08/05 00:43:35;;;;;;;5.18;3.72;;;17.90;99.90;;;;;;6187282;23;20017;-79
2022/08/05 00:46:01;;;;;;;8.80;4.57;;;18.00;99.90;;;;;;6160451;23;20013;-78
2022/08/05 00:48:27;;;;;;;5.30;3.53;;;18.00;99.90;;;;;;6160420;23;20345;-79
2022/08/05 00:50:53;;;;;;;6.30;3.65;;;17.90;99.90;;;;;;6186627;23;20013;-79
2022/08/05 00:53:21;;;;;;;4.60;3.47;;;17.90;99.90;;;;;;6161678;23;20120;-78
2022/08/05 00:55:47;;;;;;;5.63;3.40;;;17.90;99.90;;;;;;6160884;23;20293;-78
2022/08/05 00:58:17;;;;;;;7.28;3.55;;;17.90;99.90;;;;;;6161635;23;20016;-79
2022/08/05 01:00:44;;;;;;;3.72;3.30;;;17.90;99.90;;;;;;6162931;23;20023;-78
2022/08/05 01:03:10;;;;;;;6.05;3.50;;;17.80;99.90;;;;;;6188583;23;20063;-78
2022/08/05 01:05:36;;;;;;;5.03;3.30;;;17.80;99.90;;;;;;6163043;23;20437;-79
2022/08/05 01:08:03;;;;;;;5.38;3.42;;;17.80;99.90;;;;;;6164322;23;20067;-78
2022/08/05 01:10:36;;;;;;;5.28;3.35;;;17.80;99.90;;;;;;6163350;23;20016;-79
2022/08/05 01:13:26;;;;;;;4.40;3.20;;;17.80;99.90;;;;;;6163803;23;20376;-79
2022/08/05 01:15:57;;;;;;;5.93;3.35;;;17.80;99.90;;;;;;6163623;23;20032;-79
2022/08/05 01:18:28;;;;;;;4.88;3.40;;;17.70;99.90;;;;;;6163387;23;20036;-79
2022/08/05 01:21:24;;;;;;;9.63;4.22;;;17.80;99.90;;;;;;6187906;23;20017;-79
2022/08/05 01:24:06;;;;;;;7.88;3.83;;;17.90;99.90;;;;;;6188844;23;20492;-79
2022/08/05 01:26:36;;;;;;;6.00;4.00;;;17.80;99.90;;;;;;6187297;23;20107;-79
2022/08/05 01:29:09;;;;;;;6.80;4.10;;;17.80;99.90;;;;;;6188621;23;20024;-80
2022/08/05 01:31:41;;;;;;;5.95;4.32;;;17.90;99.90;;;;;;6163710;23;20637;-79
2022/08/05 01:34:15;;;;;;;6.90;4.30;;;17.80;99.90;;;;;;6163523;23;20043;-79
2022/08/05 01:36:57;;;;;;;4.55;3.72;;;17.80;99.90;;;;;;6163495;23;20051;-78
2022/08/05 01:39:25;;;;;;;5.57;3.95;;;17.80;99.90;;;;;;6187885;23;20043;-79
2022/08/05 01:41:54;;;;;;;5.50;4.07;;;17.80;99.90;;;;;;6163800;23;20054;-80
2022/08/05 01:44:20;;;;;;;10.07;4.38;;;17.80;99.90;;;;;;6164003;23;20012;-80
2022/08/05 01:46:47;;;;;;;5.93;4.28;;;17.90;99.90;;;;;;6162687;23;20039;-79
2022/08/05 01:49:20;;;;;;;5.05;4.10;;;17.80;99.90;;;;;;6163157;23;20095;-79
2022/08/05 01:51:47;;;;;;;7.88;4.15;;;17.80;99.90;;;;;;6138986;23;20099;-79
2022/08/05 01:54:16;;;;;;;5.57;4.10;;;17.90;99.90;;;;;;6138313;23;20023;-79
2022/08/05 01:56:42;;;;;;;5.38;4.03;;;17.70;99.90;;;;;;6186868;23;20031;-78
2022/08/05 01:59:13;;;;;;;5.13;3.72;;;17.80;99.90;;;;;;6163572;23;20020;-78
2022/08/05 02:01:39;;;;;;;5.47;3.80;;;17.80;99.90;;;;;;6188133;23;20020;-79
2022/08/05 02:04:07;;;;;;;6.32;4.15;;;17.70;99.90;;;;;;6162853;23;20016;-79
2022/08/05 02:06:33;;;;;;;6.72;4.15;;;17.70;99.90;;;;;;6162813;23;20328;-79
2022/08/05 02:09:00;;;;;;;7.65;4.40;;;17.70;99.90;;;;;;6162817;23;20012;-81
2022/08/05 02:11:33;;;;;;;6.93;4.13;;;17.70;99.90;;;;;;6138207;23;20018;-78
2022/08/05 02:14:07;;;;;;;6.63;3.92;;;17.80;99.90;;;;;;6187523;23;20553;-79
2022/08/05 02:16:46;;;;;;;7.72;4.18;;;17.80;99.90;;;;;;6187477;23;20752;-79
2022/08/05 02:19:27;;;;;;;6.15;4.43;;;17.70;99.90;;;;;;6187251;23;20017;-79
2022/08/05 02:21:57;;;;;;;5.57;4.30;;;17.60;99.90;;;;;;6163089;23;20012;-79
2022/08/05 02:24:27;;;;;;;7.65;4.25;;;17.60;99.90;;;;;;6186374;23;20084;-78
2022/08/05 02:26:58;;;;;;;4.30;3.90;;;17.60;99.90;;;;;;6161980;23;20441;-78
2022/08/05 02:29:28;;;;;;;6.63;4.55;;;17.60;99.90;;;;;;6186334;23;20357;-78
2022/08/05 02:31:56;;;;;;;5.45;3.97;;;17.60;99.90;;;;;;6187599;23;20016;-79
2022/08/05 02:34:23;;;;;;;6.65;4.30;;;17.50;99.90;;;;;;6162531;23;20079;-79
2022/08/05 02:36:57;;;;;;;6.32;4.65;;;17.50;99.90;;;;;;6187781;23;20019;-78
2022/08/05 02:39:26;;;;;;;6.00;4.15;;;17.50;99.90;;;;;;6162613;23;20012;-79
2022/08/05 02:41:53;;;;;;;7.93;4.28;;;17.50;99.90;;;;;;6162474;23;20013;-79
2022/08/05 02:44:22;;;;;;;6.72;4.20;;;17.50;99.90;;;;;;6163556;23;20015;-79
2022/08/05 02:46:50;;;;;;;5.88;4.10;;;17.60;99.90;;;;;;6162246;23;20013;-80
2022/08/05 02:49:16;;;;;;;7.65;4.38;;;17.60;99.90;;;;;;6163433;23;20095;-79
2022/08/05 02:51:43;;;;;;;6.20;3.90;;;17.70;99.90;;;;;;6186178;23;20500;-79
2022/08/05 02:54:11;;;;;;;5.65;4.38;;;17.60;99.90;;;;;;6162918;23;20048;-80
2022/08/05 02:56:38;;;;;;;5.63;4.03;;;17.60;99.90;;;;;;6162499;23;20016;-79
2022/08/05 02:59:05;;;;;;;7.43;3.95;;;17.60;99.90;;;;;;6162515;23;20021;-79
2022/08/05 03:01:34;;;;;;;6.10;3.92;;;17.60;99.90;;;;;;6138303;23;20083;-79
2022/08/05 03:04:03;;;;;;;6.88;4.10;;;17.70;99.90;;;;;;6163143;23;20012;-80
2022/08/05 03:06:30;;;;;;;7.93;4.03;;;17.60;99.90;;;;;;6187925;23;20013;-79
2022/08/05 03:08:57;;;;;;;4.88;4.10;;;17.60;99.90;;;;;;6164131;23;20089;-80
2022/08/05 03:11:25;;;;;;;4.95;3.67;;;17.70;99.90;;;;;;6163953;23;20027;-80
2022/08/05 03:13:52;;;;;;;6.03;4.07;;;17.60;99.90;;;;;;6162888;23;20020;-80
2022/08/05 03:16:19;;;;;;;5.05;3.72;;;17.60;99.90;;;;;;6163057;23;20071;-81
2022/08/05 03:18:46;;;;;;;6.10;3.75;;;17.70;99.90;;;;;;6137905;23;20017;-79
2022/08/05 03:21:12;;;;;;;7.50;3.83;;;17.60;99.90;;;;;;6163197;23;20016;-79
2022/08/05 03:23:41;;;;;;;5.70;3.85;;;17.60;99.90;;;;;;6137003;23;20291;-81
2022/08/05 03:26:08;;;;;;;5.20;3.47;;;17.70;99.90;;;;;;6187389;23;20048;-80
2022/08/05 03:28:35;;;;;;;4.68;3.47;;;17.70;99.90;;;;;;6137998;23;20013;-79
2022/08/05 03:31:02;;;;;;;6.43;3.97;;;17.70;99.90;;;;;;6162414;23;20039;-78
2022/08/05 03:33:28;;;;;;;6.30;4.15;;;17.70;99.90;;;;;;6161477;23;20361;-78
2022/08/05 03:35:56;;;;;;;4.97;3.33;;;17.70;99.90;;;;;;6137543;23;20008;-79
2022/08/05 03:38:23;;;;;;;7.00;3.55;;;17.70;99.90;;;;;;6113215;23;20013;-79
2022/08/05 03:40:49;;;;;;;5.88;3.70;;;17.70;99.90;;;;;;6113217;23;20071;-78
2022/08/05 03:43:16;;;;;;;6.47;4.05;;;17.80;99.90;;;;;;6162382;23;20009;-79
2022/08/05 03:45:42;;;;;;;6.75;4.30;;;17.70;99.90;;;;;;6161424;23;20008;-79
2022/08/05 03:48:07;;;;;;;7.03;4.05;;;17.70;99.90;;;;;;6162241;23;20009;-81
2022/08/05 03:50:56;;;;;;;3.90;3.50;;;17.80;99.90;;;;;;6185989;23;20344;-79
2022/08/05 03:53:35;;;;;;;7.43;3.85;;;17.70;99.90;;;;;;6186645;23;20016;-78
2022/08/05 03:56:09;;;;;;;5.72;3.20;;;17.70;99.90;;;;;;6161772;23;20021;-79
2022/08/05 03:58:36;;;;;;;4.20;3.42;;;17.70;99.90;;;;;;6186812;23;20028;-79
2022/08/05 04:01:05;;;;;;;5.82;3.40;;;17.80;99.90;;;;;;6162366;23;20012;-79
2022/08/05 04:03:36;;;;;;;5.32;3.42;;;17.90;99.90;;;;;;6186236;23;20009;-79
2022/08/05 04:06:04;;;;;;;7.05;3.20;;;17.80;99.90;;;;;;6137115;23;20032;-80
2022/08/05 04:08:31;;;;;;;6.40;3.25;;;17.80;99.90;;;;;;6162643;23;20024;-79
2022/08/05 04:10:58;;;;;;;5.55;3.58;;;17.80;99.90;;;;;;6187334;23;20012;-79
2022/08/05 04:13:25;;;;;;;4.32;3.25;;;17.70;99.90;;;;;;6187098;23;20009;-79
2022/08/05 04:15:51;;;;;;;6.05;3.47;;;17.80;99.90;;;;;;6161780;23;20012;-79
2022/08/05 04:18:17;;;;;;;5.30;3.40;;;17.80;99.90;;;;;;6162327;23;20013;-80
2022/08/05 04:20:43;;;;;;;3.83;3.33;;;17.70;99.90;;;;;;6137435;23;20361;-79
2022/08/05 04:23:10;;;;;;;5.60;3.60;;;17.80;99.90;;;;;;6114143;23;20013;-80
2022/08/05 04:25:41;;;;;;;5.38;3.42;;;17.70;99.90;;;;;;6163021;23;20100;-79
2022/08/05 04:28:07;;;;;;;6.80;3.47;;;17.70;99.90;;;;;;6113546;23;20044;-79
2022/08/05 04:30:32;;;;;;;4.80;3.70;;;17.70;99.90;;;;;;6137027;23;20020;-79
2022/08/05 04:32:59;;;;;;;5.53;3.45;;;17.70;99.90;;;;;;6137654;23;20360;-79
2022/08/05 04:35:24;;;;;;;5.00;3.60;;;17.70;99.90;;;;;;6162623;23;20058;-78
2022/08/05 04:37:50;;;;;;;6.47;3.75;;;17.70;99.90;;;;;;6162841;23;20017;-79
2022/08/05 04:40:16;;;;;;;5.60;3.83;;;17.70;99.90;;;;;;6139540;23;20024;-79
2022/08/05 04:42:41;;;;;;;5.97;3.83;;;17.70;99.90;;;;;;6139730;23;20072;-79
2022/08/05 04:45:08;;;;;;;4.05;3.65;;;17.70;99.90;;;;;;6139500;23;20013;-79
2022/08/05 04:47:33;;;;;;;5.70;4.07;;;17.60;99.90;;;;;;6138702;23;20445;-80
2022/08/05 04:50:00;;;;;;;6.93;4.13;;;17.60;99.90;;;;;;6140029;23;20017;-79
2022/08/05 04:52:26;;;;;;;5.30;3.92;;;17.70;99.90;;;;;;6139978;23;20017;-79
2022/08/05 04:54:51;;;;;;;4.90;3.97;;;17.70;99.90;;;;;;6163646;23;20020;-79
2022/08/05 04:57:17;;;;;;;4.68;3.75;;;17.80;99.90;;;;;;6164252;23;20021;-79
2022/08/05 04:59:43;;;;;;;5.72;4.00;;;17.80;99.90;;;;;;6138524;23;20020;-79
2022/08/05 05:02:09;;;;;;;5.45;3.72;;;17.70;99.90;;;;;;6187250;23;20013;-79
2022/08/05 05:04:34;;;;;;;4.57;3.92;;;17.80;99.90;;;;;;6114573;23;20067;-80
2022/08/05 05:07:00;;;;;;;5.47;4.15;;;17.80;99.90;;;;;;6139838;23;20459;-79
2022/08/05 05:09:26;;;;;;;5.00;4.22;;;17.80;99.90;;;;;;6115561;23;20020;-79
2022/08/05 05:11:51;;;;;;;5.85;4.50;;;17.80;99.90;;;;;;6139147;23;20028;-80
2022/08/05 05:14:17;;;;;;;4.15;3.75;;;17.90;99.90;;;;;;6162894;23;20315;-80
2022/08/05 05:16:43;;;;;;;4.97;3.88;;;17.80;99.90;;;;;;6163692;23;20016;-80
2022/08/05 05:19:08;;;;;;;5.47;4.07;;;17.90;99.90;;;;;;6139046;23;20476;-80
2022/08/05 05:21:34;;;;;;;5.78;4.18;;;17.90;99.90;;;;;;6163314;23;20013;-79
2022/08/05 05:23:59;;;;;;;6.05;4.00;;;17.90;99.90;;;;;;6114847;23;20040;-79
2022/08/05 05:26:28;;;;;;;7.32;4.05;;;17.90;99.90;;;;;;6163700;23;20020;-79
2022/08/05 05:28:53;;;;;;;5.65;3.90;;;17.90;99.90;;;;;;6139119;23;20024;-79
2022/08/05 05:31:19;;;;;;;7.03;4.22;;;17.90;99.90;;;;;;6139281;23;20346;-79
2022/08/05 05:33:45;;;;;;;4.55;3.97;;;17.90;99.90;;;;;;6164073;23;20013;-79
2022/08/05 05:36:10;;;;;;;5.35;3.80;;;18.00;99.90;;;;;;6115998;23;20071;-79
2022/08/05 05:38:39;;;;;;;8.07;4.38;;;18.00;99.90;;;;;;6115988;23;20051;-79
2022/08/05 05:41:05;;;;;;;4.90;4.10;;;18.00;99.90;;;;;;6139055;23;20451;-80
2022/08/05 05:43:30;;;;;;;5.07;3.90;;;18.00;99.90;;;;;;6140286;23;20012;-79
2022/08/05 05:45:56;;;;;;;4.18;3.78;;;18.10;99.90;;;;;;6115602;23;20013;-79
2022/08/05 05:48:22;;;;;;;4.60;3.30;;;18.10;99.90;;;;;;6139795;23;20112;-79
2022/08/05 05:50:50;;;;;;;3.92;3.42;;;18.10;99.90;;;;;;6163549;23;20020;-80
2022/08/05 05:53:16;;;;;;;3.72;3.17;;;18.00;99.90;;;;;;6189843;23;20091;-79
2022/08/05 05:55:42;;;;;;;8.25;3.70;;;17.90;99.90;;;;;;6136531;23;20079;-79
2022/08/05 05:58:08;;;;;;;4.82;3.38;;;17.90;99.90;;;;;;6115881;23;20055;-80
2022/08/05 06:00:33;;;;;;;3.67;3.13;;;18.00;99.90;;;;;;6164533;23;20023;-79
2022/08/05 06:03:00;;;;;;;4.35;3.72;;;17.90;99.90;;;;;;6139073;23;20406;-81
2022/08/05 06:05:26;;;;;;;6.13;3.65;;;17.90;99.90;;;;;;6140585;23;20008;-80
2022/08/05 06:07:52;;;;;;;3.95;3.40;;;17.80;99.90;;;;;;6115656;23;20498;-80
2022/08/05 06:10:17;;;;;;;6.65;3.47;;;17.90;99.90;;;;;;6140265;23;20013;-80
2022/08/05 06:12:43;;;;;;;4.22;3.53;;;17.80;99.90;;;;;;6139482;23;20017;-80
2022/08/05 06:15:10;;;;;;;6.28;3.53;;;17.90;99.90;;;;;;6188984;23;20016;-80
2022/08/05 06:17:35;;;;;;;4.38;3.97;;;17.90;99.90;;;;;;6139737;23;20013;-79
2022/08/05 06:20:03;;;;;;;4.65;4.10;;;17.90;99.90;;;;;;6188161;23;20020;-80
2022/08/05 06:22:31;;;;;;;4.95;3.40;;;18.10;99.90;;;;;;6164089;23;20342;-79
2022/08/05 06:24:57;;;;;;;5.60;3.88;;;18.10;99.90;;;;;;6138660;23;20032;-79
2022/08/05 06:27:23;;;;;;;4.20;3.28;;;18.20;99.90;;;;;;6139162;23;20009;-80
2022/08/05 06:29:49;;;;;;;3.45;2.97;;;18.20;99.90;;;;;;6163235;23;20016;-79
2022/08/05 06:32:15;;;;;;;5.80;3.05;;;18.20;99.90;;;;;;6139659;23;20016;-80
2022/08/05 06:34:41;;;;;;;2.83;2.13;;;18.40;99.90;;;;;;6115007;23;20095;-80
2022/08/05 06:37:07;;;;;;;3.83;2.15;;;18.30;99.90;;;;;;6164256;23;20381;-79
2022/08/05 06:39:33;;;;;;;3.08;2.20;;;18.30;99.90;;;;;;6139373;23;20150;-80
2022/08/05 06:42:01;;;;;;;4.68;2.20;;;18.40;99.90;;;;;;6137454;23;20008;-81
2022/08/05 06:44:27;;;;;;;3.58;1.83;;;18.40;99.90;;;;;;6188597;23;20009;-80
2022/08/05 06:46:54;;;;;;;4.00;1.92;;;18.50;99.90;;;;;;6139086;23;20067;-80
2022/08/05 06:49:19;;;;;;;4.68;1.98;;;18.60;99.90;;;;;;6188630;23;20441;-81
2022/08/05 06:51:45;;;;;;;3.67;1.73;;;18.70;99.90;;;;;;6162272;23;20047;-80
2022/08/05 06:54:11;;;;;;;3.83;1.98;;;18.70;99.90;;;;;;6188662;23;20023;-81
2022/08/05 06:56:37;;;;;;;2.80;1.58;;;18.90;99.90;;;;;;6139133;23;20017;-81
2022/08/05 06:59:04;;;;;;;1.98;1.65;;;18.90;99.90;;;;;;6163852;23;20019;-81
2022/08/05 07:01:30;;;;;;;3.42;1.60;;;19.00;99.90;;;;;;6114520;23;20021;-81
2022/08/05 07:03:56;;;;;;;3.10;1.75;;;19.20;99.90;;;;;;6139475;23;20019;-81
2022/08/05 07:06:22;;;;;;;2.45;1.33;;;19.10;99.90;;;;;;6189533;23;20442;-82
2022/08/05 07:08:49;;;;;;;3.47;1.60;;;19.30;99.90;;;;;;6140287;23;20012;-80
2022/08/05 07:11:15;;;;;;;3.38;1.30;;;19.30;99.90;;;;;;6163656;23;20016;-81
2022/08/05 07:19:13;;;;;;;4.43;1.40;;;19.30;99.90;;;;;;6189348;23;20103;-81
2022/08/05 07:21:39;;;;;;;2.75;1.50;;;19.30;99.90;;;;;;6115897;23;20020;-80
2022/08/05 07:24:06;;;;;;;1.88;1.35;;;19.40;99.90;;;;;;6163221;23;20742;-80
2022/08/05 07:26:39;;;;;;;3.92;1.30;;;19.60;99.90;;;;;;6164289;23;20035;-82
2022/08/05 07:29:05;;;;;;;2.92;1.20;;;19.50;99.90;;;;;;6163511;23;20016;-81
2022/08/05 07:31:31;;;;;;;1.65;1.20;;;19.60;99.90;;;;;;6139413;23;20437;-79
2022/08/05 07:33:56;;;;;;;4.07;1.38;;;19.50;99.90;;;;;;6138597;23;20017;-80
2022/08/05 07:36:22;;;;;;;1.95;1.33;;;19.40;99.90;;;;;;6138985;23;20369;-80
2022/08/05 07:38:48;;;;;;;3.35;1.30;;;19.40;99.90;;;;;;6138331;23;20023;-80
2022/08/05 07:41:16;;;;;;;1.80;1.10;;;19.40;99.90;;;;;;6138710;23;20457;-81
2022/08/05 07:43:42;;;;;;;1.25;1.15;;;19.50;99.90;;;;;;6164213;23;20441;-80
2022/08/05 07:46:08;;;;;;;1.70;1.13;;;19.40;99.90;;;;;;6139770;23;20017;-80
2022/08/05 07:48:34;;;;;;;3.05;1.20;;;19.30;99.90;;;;;;6114500;23;20013;-81
2022/08/05 07:51:00;;;;;;;2.08;1.20;;;19.40;99.90;;;;;;6138480;23;20016;-80
2022/08/05 07:53:25;;;;;;;1.60;1.20;;;19.40;99.90;;;;;;6163599;23;20424;-81
2022/08/05 07:55:51;;;;;;;1.33;1.10;;;19.50;99.90;;;;;;6137399;23;20027;-80
2022/08/05 07:58:17;;;;;;;2.85;1.10;;;19.60;99.90;;;;;;6161013;23;20021;-80
2022/08/05 08:00:44;;;;;;;1.77;1.00;;;19.70;99.90;;;;;;6136800;23;20349;-80
2022/08/05 08:03:13;;;;;;;2.67;1.05;;;19.80;99.90;;;;;;6163257;23;20091;-80
2022/08/05 08:05:43;;;;;;;1.33;0.90;;;19.80;99.90;;;;;;6138987;23;20318;-81
2022/08/05 08:08:10;;;;;;;2.42;1.05;;;20.00;99.90;;;;;;6163408;23;20019;-81
2022/08/05 08:10:36;;;;;;;1.75;1.08;;;20.10;99.90;;;;;;6138853;23;20013;-81
2022/08/05 08:13:03;;;;;;;2.40;1.20;;;20.20;99.90;;;;;;6163491;23;20103;-80
2022/08/05 08:15:29;;;;;;;1.27;1.13;;;20.20;99.90;;;;;;6163581;23;20024;-80
2022/08/05 08:17:57;;;;;;;1.25;1.15;;;20.00;99.90;;;;;;6163158;23;20012;-82
2022/08/05 08:20:24;;;;;;;2.50;1.10;;;20.10;99.90;;;;;;6163919;23;20020;-79
2022/08/05 08:22:53;;;;;;;2.30;0.98;;;20.30;99.90;;;;;;6188846;23;20096;-80
2022/08/05 08:25:19;;;;;;;3.22;1.10;;;20.30;99.90;;;;;;6186906;23;20013;-79
2022/08/05 08:27:45;;;;;;;2.25;1.33;;;20.50;99.90;;;;;;6138642;23;20501;-79
2022/08/05 08:30:11;;;;;;;0.98;0.88;;;20.30;99.90;;;;;;6137063;23;20024;-80
2022/08/05 08:32:37;;;;;;;2.85;1.05;;;20.30;99.90;;;;;;6114976;23;20091;-80
2022/08/05 08:35:04;;;;;;;2.40;1.15;;;20.20;99.90;;;;;;6163002;23;20055;-79
2022/08/05 08:37:29;;;;;;;5.07;1.27;;;20.30;99.90;;;;;;6161654;23;20017;-80
2022/08/05 08:39:55;;;;;;;4.35;1.20;;;20.50;99.90;;;;;;6138281;23;20020;-79
2022/08/05 08:42:22;;;;;;;2.50;0.90;;;20.70;99.90;;;;;;6187750;23;20059;-79
2022/08/05 08:44:48;;;;;;;2.03;0.98;;;21.00;99.90;;;;;;6162666;23;20009;-79
2022/08/05 08:47:17;;;;;;;3.60;1.10;;;20.90;99.90;;;;;;6161666;23;20012;-80
2022/08/05 08:49:46;;;;;;;3.25;1.10;;;20.80;99.90;;;;;;6163606;23;20026;-80
2022/08/05 08:52:16;;;;;;;4.10;1.05;;;20.60;99.90;;;;;;6138845;23;20017;-81
2022/08/05 08:54:43;;;;;;;4.38;1.23;;;19.80;99.90;;;;;;6164475;23;20071;-80
2022/08/05 08:57:10;;;;;;;2.60;1.00;;;19.50;99.90;;;;;;6138432;23;20028;-79
2022/08/05 08:59:37;;;;;;;3.05;1.20;;;19.30;99.90;;;;;;6138782;23;20024;-80
2022/08/05 09:02:05;;;;;;;3.78;1.10;;;19.80;99.90;;;;;;6163045;23;20013;-79
2022/08/05 09:04:38;;;;;;;1.75;0.90;;;20.20;99.90;;;;;;6138167;23;20022;-80
2022/08/05 09:07:05;;;;;;;1.75;1.00;;;20.50;99.90;;;;;;6139051;23;20012;-79
2022/08/05 09:09:34;;;;;;;4.78;1.05;;;20.60;99.90;;;;;;6161686;23;20582;-81
2022/08/05 09:12:04;;;;;;;0.93;0.80;;;20.80;99.90;;;;;;6162335;23;20010;-80
2022/08/05 09:14:37;;;;;;;2.33;0.95;;;20.30;99.90;;;;;;6138552;23;20056;-81
2022/08/05 09:17:05;;;;;;;1.65;0.85;;;19.90;99.90;;;;;;6187000;23;20100;-80
2022/08/05 09:19:35;;;;;;;2.17;0.80;;;19.80;99.90;;;;;;6137219;23;20097;-79
2022/08/05 09:22:01;;;;;;;2.83;0.93;;;20.10;99.90;;;;;;6138684;23;20015;-81
2022/08/05 09:24:26;;;;;;;1.85;0.90;;;20.50;99.90;;;;;;6189457;23;20040;-80
2022/08/05 09:26:57;;;;;;;3.95;1.40;;;20.50;99.90;;;;;;6139979;23;20345;-80
2022/08/05 09:29:44;;;;;;;1.95;0.90;;;20.60;99.90;;;;;;6163650;23;20027;-80
2022/08/05 09:32:10;;;;;;;1.02;0.77;;;21.00;99.90;;;;;;6163025;23;20023;-79
2022/08/05 09:34:54;;;;;;;4.45;1.02;;;20.90;99.90;;;;;;6163877;23;20012;-78
2022/08/05 09:37:25;;;;;;;3.05;0.88;;;20.90;99.90;;;;;;6163428;23;20016;-79
2022/08/05 09:39:51;;;;;;;5.38;0.93;;;21.30;99.90;;;;;;6188072;23;20434;-79
2022/08/05 09:42:19;;;;;;;2.33;0.80;;;21.50;99.90;;;;;;6138546;23;20067;-81
2022/08/05 09:44:47;;;;;;;2.00;0.85;;;21.70;99.90;;;;;;6188770;23;20048;-80
2022/08/05 09:47:17;;;;;;;2.47;0.75;;;21.60;99.90;;;;;;6163310;23;20087;-80
2022/08/05 09:49:55;;;;;;;1.77;0.80;;;21.60;99.90;;;;;;6189213;23;20038;-80
2022/08/05 09:52:38;;;;;;;1.50;0.80;;;22.30;99.90;;;;;;6187943;23;20021;-80
2022/08/05 09:55:10;;;;;;;2.38;0.73;;;22.40;99.90;;;;;;6162086;23;20430;-79
2022/08/05 09:57:44;;;;;;;2.15;0.90;;;22.30;99.90;;;;;;6164377;23;20022;-81
2022/08/05 10:00:14;;;;;;;1.98;0.80;;;22.10;99.90;;;;;;6189527;23;20071;-81
2022/08/05 10:02:48;;;;;;;1.50;0.70;;;22.90;99.90;;;;;;6164864;23;20008;-80
2022/08/05 10:05:19;;;;;;;2.78;0.73;;;22.90;99.90;;;;;;6140332;23;20004;-80
2022/08/05 10:07:53;;;;;;;3.78;1.25;;;23.10;99.90;;;;;;6163778;23;20020;-80
2022/08/05 10:10:25;;;;;;;1.27;0.63;;;23.20;99.90;;;;;;6164429;23;20067;-81
2022/08/05 10:12:52;;;;;;;1.73;0.90;;;23.20;99.90;;;;;;6165257;23;20020;-80
2022/08/05 10:15:28;;;;;;;2.70;0.75;;;22.10;99.90;;;;;;6189490;23;20050;-80
2022/08/05 10:18:15;;;;;;;0.63;0.55;;;22.40;99.90;;;;;;6164447;23;20019;-81
2022/08/05 10:20:47;;;;;;;2.30;0.80;;;22.90;99.90;;;;;;6140272;23;20016;-81
2022/08/05 10:23:25;;;;;;;1.13;0.60;;;22.60;99.90;;;;;;6164358;23;20444;-79
2022/08/05 10:25:50;;;;;;;1.35;0.60;;;21.70;99.90;;;;;;6163930;23;20013;-79
2022/08/05 10:28:17;;;;;;;1.70;0.70;;;22.50;99.90;;;;;;6163001;23;20067;-81
2022/08/05 10:30:43;;;;;;;0.95;0.80;;;22.60;99.90;;;;;;6164129;23;20012;-80
2022/08/05 10:33:09;;;;;;;0.60;0.60;;;23.10;99.90;;;;;;6162873;23;20016;-79
2022/08/05 10:35:35;;;;;;;0.85;0.50;;;23.40;99.90;;;;;;6163680;23;20012;-79
2022/08/05 10:38:03;;;;;;;1.00;0.60;;;23.70;99.90;;;;;;6113204;23;20460;-80
2022/08/05 10:40:48;;;;;;;1.73;0.68;;;23.90;99.90;;;;;;6163138;23;20012;-80
2022/08/05 10:43:53;;;;;;;0.95;0.50;;;23.60;99.90;;;;;;6162635;23;20012;-80
2022/08/05 10:46:22;;;;;;;2.67;0.50;;;23.80;99.90;;;;;;6163256;23;20770;-80
2022/08/05 10:48:54;;;;;;;1.60;0.52;;;24.10;99.90;;;;;;6162750;23;20313;-80
2022/08/05 10:51:21;;;;;;;1.10;0.60;;;23.90;99.90;;;;;;6163267;23;20314;-79
2022/08/05 10:53:49;;;;;;;0.43;0.40;;;24.10;99.90;;;;;;6163022;23;20067;-79
2022/08/05 10:56:24;;;;;;;1.10;0.50;;;24.00;99.90;;;;;;6162748;23;20396;-79
2022/08/05 10:58:52;;;;;;;1.30;0.40;;;24.00;99.90;;;;;;6164104;23;20012;-80
2022/08/05 11:01:35;;;;;;;3.33;0.70;;;23.40;99.90;;;;;;6163059;23;20017;-79
2022/08/05 11:04:21;;;;;;;0.90;0.50;;;23.80;99.90;;;;;;6163350;23;20211;-80
2022/08/05 11:07:00;;;;;;;1.58;0.50;;;24.00;99.60;;;;;;6141298;23;20067;-80
2022/08/05 11:09:45;;;;;;;1.20;0.60;;;23.20;98.60;;;;;;6163665;23;20012;-81
2022/08/05 11:12:23;;;;;;;0.95;0.50;;;23.10;99.90;;;;;;6164842;23;20095;-80
2022/08/05 11:15:05;;;;;;;1.17;0.50;;;22.90;98.30;;;;;;6188952;23;20052;-81
2022/08/05 11:17:36;;;;;;;2.80;0.50;;;23.10;95.30;;;;;;6188539;23;20024;-80
2022/08/05 11:20:03;;;;;;;0.80;0.45;;;22.90;99.90;;;;;;6162822;23;20043;-80
2022/08/05 11:22:50;;;;;;;1.15;0.43;;;22.20;99.90;;;;;;6138903;23;20143;-80
2022/08/05 11:25:37;;;;;;;1.17;0.50;;;22.40;98.80;;;;;;6163793;23;20494;-81
2022/08/05 11:28:12;;;;;;;1.10;0.50;;;22.70;99.90;;;;;;6189240;23;20009;-81
2022/08/05 11:31:00;;;;;;;2.28;0.50;;;23.30;92.60;;;;;;6164535;23;20042;-81
2022/08/05 11:33:29;;;;;;;2.15;0.45;;;23.40;90.20;;;;;;6188364;23;20158;-80
2022/08/05 11:36:05;;;;;;;1.30;0.65;;;22.50;95.80;;;;;;6139466;23;20017;-81
2022/08/05 11:38:40;;;;;;;1.88;0.60;;;22.40;93.00;;;;;;6163468;23;20376;-81
2022/08/05 11:41:30;;;;;;;2.55;0.70;;;23.00;83.30;;;;;;6163236;23;20017;-80
2022/08/05 11:44:00;;;;;;;2.13;0.70;;;22.50;87.10;;;;;;6163353;23;20018;-80
2022/08/05 11:46:36;;;;;;;4.18;0.60;;;22.40;94.70;;;;;;6187145;23;20013;-80
2022/08/05 11:49:05;;;;;;;0.77;0.50;;;22.10;99.10;;;;;;6163996;23;20087;-82
2022/08/05 11:51:34;;;;;;;3.95;0.82;;;21.20;99.90;;;;;;6188705;23;20008;-80
2022/08/05 11:54:00;;;;;;;3.38;0.75;;;21.70;99.90;;;;;;6139875;23;20004;-81
2022/08/05 11:56:51;;;;;;;3.05;0.80;;;21.90;99.90;;;;;;6188053;23;20512;-81
2022/08/05 11:59:24;;;;;;;1.45;0.70;;;22.30;94.20;;;;;;6165395;23;20386;-80
2022/08/05 12:02:07;;;;;;;2.33;0.68;;;21.70;99.60;;;;;;6163898;23;20024;-79
2022/08/05 12:05:00;;;;;;;2.85;0.80;;;22.10;99.90;;;;;;6164022;23;20009;-82
2022/08/05 12:07:33;;;;;;;1.73;0.60;;;21.60;99.60;;;;;;6188089;23;20036;-81
2022/08/05 12:10:01;;;;;;;1.88;0.90;;;21.40;98.80;;;;;;6163164;23;20392;-80
2022/08/05 12:12:31;;;;;;;2.88;0.50;;;21.30;99.90;;;;;;6188036;23;20020;-81
2022/08/05 12:14:57;;;;;;;2.45;0.60;;;21.60;99.90;;;;;;6139977;23;20023;-81
2022/08/05 12:17:26;;;;;;;1.30;0.60;;;22.00;99.90;;;;;;6139384;23;20013;-81
2022/08/05 12:19:54;;;;;;;2.05;0.65;;;21.90;99.90;;;;;;6115753;23;20016;-81
2022/08/05 12:22:25;;;;;;;2.47;0.60;;;21.70;99.90;;;;;;6138664;23;20005;-80
2022/08/05 12:24:51;;;;;;;1.45;0.65;;;21.20;99.90;;;;;;6164014;23;20028;-81
2022/08/05 12:27:21;;;;;;;1.83;0.50;;;21.10;99.90;;;;;;6163178;23;20036;-80
2022/08/05 12:30:01;;;;;;;1.02;0.50;;;20.90;99.90;;;;;;6188163;23;20020;-81
2022/08/05 12:32:30;;;;;;;2.20;0.63;;;20.60;99.90;;;;;;6162731;23;20445;-79
2022/08/05 12:34:56;;;;;;;1.00;0.60;;;20.90;99.90;;;;;;6187960;23;20012;-79
2022/08/05 12:37:22;;;;;;;2.50;0.80;;;21.20;99.90;;;;;;6138503;23;20123;-80
2022/08/05 12:39:49;;;;;;;1.15;0.65;;;21.60;99.90;;;;;;6139348;23;20023;-80
2022/08/05 12:42:17;;;;;;;4.03;0.60;;;22.10;99.90;;;;;;6162442;23;20071;-81
2022/08/05 12:44:43;;;;;;;0.85;0.63;;;22.80;99.90;;;;;;6162631;23;20012;-81
2022/08/05 12:47:09;;;;;;;2.40;0.75;;;22.10;99.90;;;;;;6188449;23;20048;-83
2022/08/05 12:49:49;;;;;;;3.78;0.90;;;21.50;99.90;;;;;;6163014;23;20048;-81
2022/08/05 12:52:17;;;;;;;1.17;0.60;;;21.60;99.90;;;;;;6164026;23;20299;-81
2022/08/05 12:54:47;;;;;;;1.88;0.60;;;21.40;99.90;;;;;;6113967;23;20016;-81
2022/08/05 12:57:13;;;;;;;2.80;0.57;;;20.80;99.90;;;;;;6142194;23;20016;-80
2022/08/05 12:59:50;;;;;;;1.50;0.63;;;20.60;99.90;;;;;;6191945;23;20023;-81
2022/08/05 13:02:25;;;;;;;2.10;0.80;;;20.50;99.90;;;;;;6166755;23;20043;-80
2022/08/05 13:04:52;;;;;;;1.30;0.60;;;20.40;99.90;;;;;;6144883;23;20013;-80